Time;durP1;ratioP1;P1;durP2;ratioP2;P2;SDS_P1;SDS_P2;PMS_P1;PMS_P2;Temp;Humidity;BMP_temperature;BMP_pressure;BME280_temperature;BME280_humidity;BME280_pressure;Samples;Min_cycle;Max_cycle;Signal;HPM_P1;HPM_P2
2022/02/01 00:01:37;;;;;;;36.30;13.97;;;;;;;2.51;92.80;101416.31;5072218;28;20185;-73
2022/02/01 00:04:05;;;;;;;28.20;14.13;;;;;;;2.54;92.42;101414.88;5072208;28;20300;-74
2022/02/01 00:34:05;;;;;;;31.93;13.83;;;;;;;2.72;92.57;101403.28;5029309;28;20202;-73
2022/02/01 00:39:03;;;;;;;27.67;14.00;;;;;;;2.75;91.92;101383.25;5070243;28;20213;-73
2022/02/01 00:41:33;;;;;;;29.77;14.53;;;;;;;2.78;92.02;101390.16;5071536;28;20276;-73
2022/02/01 00:44:00;;;;;;;30.37;13.63;;;;;;;2.80;92.13;101402.09;5071492;28;20217;-73
2022/02/01 00:46:26;;;;;;;30.97;14.03;;;;;;;2.80;92.09;101401.25;5070239;28;20201;-74
2022/02/01 00:48:52;;;;;;;29.57;15.13;;;;;;;2.83;91.66;101401.41;5069859;28;20188;-73
2022/02/01 00:51:18;;;;;;;34.87;15.53;;;;;;;2.83;92.98;101406.47;5071407;28;20200;-73
2022/02/01 00:53:43;;;;;;;28.10;15.00;;;;;;;2.77;93.08;101396.88;5053053;28;20185;-73
2022/02/01 00:56:09;;;;;;;29.17;14.77;;;;;;;2.75;92.97;101403.50;5071333;28;20576;-73
2022/02/01 00:58:36;;;;;;;35.70;14.63;;;;;;;2.68;92.46;101393.81;5052896;28;20185;-73
2022/02/01 01:01:02;;;;;;;30.03;15.47;;;;;;;2.72;93.21;101398.25;5070993;28;20212;-73
2022/02/01 01:03:27;;;;;;;29.83;15.63;;;;;;;2.76;93.74;101401.84;5069664;28;20307;-73
2022/02/01 01:05:53;;;;;;;33.17;15.57;;;;;;;2.76;93.69;101404.38;5070937;28;20327;-73
2022/02/01 01:08:19;;;;;;;30.30;14.57;;;;;;;2.79;93.60;101410.47;5070663;28;20188;-74
2022/02/01 01:10:45;;;;;;;33.50;15.87;;;;;;;2.79;93.39;101410.47;5070937;28;20238;-73
2022/02/01 01:15:58;;;;;;;32.50;16.03;;;;;;;2.80;94.19;101422.31;5070916;28;20177;-73
2022/02/01 01:53:50;;;;;;;26.03;10.37;;;;;;;2.98;94.43;101394.69;5069691;28;20213;-73
2022/02/01 01:56:15;;;;;;;22.73;10.77;;;;;;;2.99;95.12;101383.84;5070157;28;20223;-74
2022/02/01 01:58:41;;;;;;;23.17;10.67;;;;;;;3.01;95.08;101387.31;5069711;28;20189;-73
2022/02/01 02:01:14;;;;;;;22.73;9.83;;;;;;;3.02;94.92;101379.81;5068705;28;20185;-74
2022/02/01 02:03:45;;;;;;;18.43;9.13;;;;;;;3.04;93.94;101375.69;5069904;28;20217;-73
2022/02/01 02:06:12;;;;;;;28.77;9.77;;;;;;;3.07;93.97;101380.06;5069823;28;20185;-74
2022/02/01 02:08:40;;;;;;;23.40;9.07;;;;;;;3.07;93.97;101375.00;5068254;28;20184;-73
2022/02/01 02:11:16;;;;;;;18.43;8.67;;;;;;;3.08;94.77;101371.72;5068707;28;20189;-73
2022/02/01 02:14:23;;;;;;;27.07;8.13;;;;;;;3.08;94.09;101366.66;5069901;28;20250;-73
2022/02/01 02:16:57;;;;;;;18.10;8.13;;;;;;;3.04;94.35;101363.06;5069789;28;20198;-73
2022/02/01 02:19:26;;;;;;;19.97;7.63;;;;;;;2.99;94.49;101345.91;5068137;28;20314;-74
2022/02/01 02:21:53;;;;;;;15.10;7.40;;;;;;;2.96;93.58;101348.25;5069859;28;20185;-73
2022/02/01 02:24:19;;;;;;;21.13;7.07;;;;;;;2.91;93.58;101340.41;5069753;28;20312;-73
2022/02/01 02:26:45;;;;;;;18.43;7.80;;;;;;;2.90;93.77;101338.63;5069685;28;20192;-73
2022/02/01 02:29:11;;;;;;;19.93;7.67;;;;;;;2.91;94.66;101337.00;5068725;28;20299;-73
2022/02/01 02:31:38;;;;;;;14.70;6.90;;;;;;;2.88;94.42;101340.22;5051614;28;20295;-73
2022/02/01 02:34:10;;;;;;;15.37;6.83;;;;;;;2.85;93.94;101346.75;5068450;28;20590;-73
2022/02/01 02:36:43;;;;;;;15.40;5.67;;;;;;;2.84;94.14;101334.88;5068365;28;20227;-73
2022/02/01 02:42:06;;;;;;;14.70;4.50;;;;;;;2.80;94.27;101354.06;5069527;28;20177;-73
2022/02/01 02:47:16;;;;;;;17.80;4.00;;;;;;;2.76;94.69;101366.47;5068444;28;20189;-73
2022/02/01 02:49:42;;;;;;;9.30;3.37;;;;;;;2.77;93.88;101370.72;5064893;28;20219;-73
2022/02/01 02:52:07;;;;;;;16.47;3.50;;;;;;;2.75;94.76;101368.09;5064885;28;20249;-73
2022/02/01 02:54:32;;;;;;;16.70;3.37;;;;;;;2.72;94.53;101360.31;5068386;28;20215;-73
2022/02/01 02:57:05;;;;;;;14.20;3.50;;;;;;;2.72;94.32;101370.44;5069445;28;20193;-73
2022/02/01 02:59:31;;;;;;;9.30;2.87;;;;;;;2.70;94.53;101361.03;5067899;28;20757;-74
2022/02/01 03:01:57;;;;;;;16.57;3.53;;;;;;;2.69;94.23;101355.13;5068130;28;20260;-73
2022/02/01 03:04:30;;;;;;;11.60;3.47;;;;;;;2.68;95.09;101355.91;5069680;28;20223;-74
2022/02/01 03:06:56;;;;;;;13.33;3.20;;;;;;;2.69;94.56;101355.13;5069418;28;20197;-73
2022/02/01 03:09:23;;;;;;;12.13;3.10;;;;;;;2.68;94.20;101362.59;5069045;28;20263;-73
2022/02/01 03:11:50;;;;;;;15.90;2.80;;;;;;;2.69;94.35;101367.75;5069298;28;20196;-73
2022/02/01 03:14:25;;;;;;;17.03;3.37;;;;;;;2.72;94.22;101370.44;5068102;28;20181;-73
2022/02/01 03:17:11;;;;;;;16.57;3.07;;;;;;;2.76;94.31;101368.97;5067773;28;20184;-74
2022/02/01 03:19:49;;;;;;;15.53;2.80;;;;;;;2.77;94.74;101364.03;5068816;28;20417;-73
2022/02/01 03:22:15;;;;;;;12.77;2.90;;;;;;;2.78;94.57;101357.28;5069153;28;20189;-73
2022/02/01 03:24:41;;;;;;;15.07;3.13;;;;;;;2.79;95.12;101356.50;5067715;28;20748;-73
2022/02/01 03:27:06;;;;;;;12.90;2.87;;;;;;;2.77;95.23;101346.31;5069016;28;20223;-74
2022/02/01 03:29:31;;;;;;;16.17;3.40;;;;;;;2.81;94.40;101339.78;5067451;28;20297;-73
2022/02/01 03:31:57;;;;;;;12.00;2.77;;;;;;;2.82;94.84;101339.88;5069129;28;20189;-73
2022/02/01 03:34:22;;;;;;;14.93;3.10;;;;;;;2.83;93.92;101338.19;5067592;28;20193;-73
2022/02/01 03:36:48;;;;;;;11.13;2.53;;;;;;;2.85;94.47;101342.56;5068999;28;20540;-74
2022/02/01 03:39:14;;;;;;;12.90;2.33;;;;;;;2.84;94.71;101345.88;5068686;28;20284;-73
2022/02/01 03:41:39;;;;;;;12.70;2.40;;;;;;;2.88;94.22;101341.88;5071162;28;20246;-74
2022/02/01 03:44:06;;;;;;;13.23;2.50;;;;;;;2.89;93.83;101331.84;5071297;28;20682;-74
2022/02/01 03:46:31;;;;;;;13.60;2.13;;;;;;;2.88;93.78;101326.69;5072554;28;20230;-73
2022/02/01 03:48:57;;;;;;;16.10;3.30;;;;;;;2.86;93.66;101330.81;5072373;28;20189;-74
2022/02/01 03:51:23;;;;;;;18.43;2.60;;;;;;;2.89;93.48;101331.84;5072607;28;20177;-74
2022/02/01 03:53:48;;;;;;;15.70;3.40;;;;;;;2.91;93.21;101334.47;5072178;28;20677;-74
2022/02/01 03:56:13;;;;;;;17.97;2.93;;;;;;;2.93;92.02;101332.88;5072977;28;20609;-74
2022/02/01 03:58:39;;;;;;;22.27;3.83;;;;;;;2.95;92.12;101337.25;5072536;28;20208;-73
2022/02/01 04:01:04;;;;;;;14.60;2.43;;;;;;;2.98;91.09;101336.53;5071176;28;20220;-74
2022/02/01 04:03:30;;;;;;;12.97;3.07;;;;;;;3.01;90.73;101340.13;5072185;28;20225;-74
2022/02/01 04:05:55;;;;;;;13.53;3.00;;;;;;;3.01;90.72;101337.63;5072281;28;20264;-74
2022/02/01 04:08:23;;;;;;;12.87;2.27;;;;;;;3.04;89.88;101331.84;5072043;28;20177;-73
2022/02/01 04:10:49;;;;;;;16.27;2.63;;;;;;;3.01;90.08;101327.50;5072083;28;20641;-74
2022/02/01 04:13:15;;;;;;;11.23;2.63;;;;;;;2.98;89.95;101326.44;5070855;28;20188;-74
2022/02/01 04:15:41;;;;;;;18.83;3.33;;;;;;;2.98;89.96;101326.44;5072068;28;20624;-73
2022/02/01 04:18:07;;;;;;;18.23;3.10;;;;;;;2.95;90.49;101324.59;5070627;28;20271;-74
2022/02/01 04:20:33;;;;;;;18.83;2.67;;;;;;;2.95;89.81;101322.06;5071867;28;20220;-74
2022/02/01 04:22:59;;;;;;;14.90;2.90;;;;;;;2.93;90.03;101316.06;5071798;28;20213;-74
2022/02/01 04:25:24;;;;;;;14.60;3.47;;;;;;;2.90;90.19;101317.56;5071882;28;20673;-73
2022/02/01 04:27:50;;;;;;;18.77;3.10;;;;;;;2.87;90.29;101313.19;5071869;28;20188;-74
2022/02/01 04:30:17;;;;;;;21.23;3.60;;;;;;;2.86;90.70;101316.53;5070367;28;20206;-73
2022/02/01 04:32:45;;;;;;;24.50;3.97;;;;;;;2.87;90.08;101313.19;5071680;28;20199;-74
2022/02/01 04:35:13;;;;;;;16.27;3.10;;;;;;;2.85;90.55;101311.38;5071645;28;20276;-74
2022/02/01 04:37:39;;;;;;;17.03;2.93;;;;;;;2.89;90.37;101320.88;5070197;28;20185;-74
2022/02/01 04:40:07;;;;;;;15.20;2.80;;;;;;;2.92;89.97;101321.03;5070039;28;20258;-74
2022/02/01 04:42:35;;;;;;;18.87;3.10;;;;;;;2.94;89.66;101316.94;5071507;28;20185;-74
2022/02/01 04:45:03;;;;;;;16.73;2.83;;;;;;;2.96;89.30;101328.00;5071579;28;20189;-74
2022/02/01 04:47:31;;;;;;;13.97;2.67;;;;;;;2.95;89.78;101329.66;5071474;28;20227;-74
2022/02/01 04:49:58;;;;;;;12.17;2.60;;;;;;;2.95;89.76;101324.59;5071095;28;20220;-74
2022/02/01 04:52:24;;;;;;;18.97;2.77;;;;;;;2.95;90.10;101321.22;5070517;28;20216;-74
2022/02/01 04:54:49;;;;;;;12.70;2.33;;;;;;;2.95;89.59;101318.69;5071420;28;20235;-74
2022/02/01 04:57:15;;;;;;;12.93;2.47;;;;;;;2.96;90.02;101322.94;5070071;28;20180;-74
2022/02/01 04:59:40;;;;;;;17.30;3.63;;;;;;;2.96;90.02;101325.47;5071040;28;20220;-74
2022/02/01 05:02:06;;;;;;;16.87;2.80;;;;;;;2.97;89.89;101324.69;5071294;28;20169;-74
2022/02/01 05:04:31;;;;;;;14.23;2.93;;;;;;;2.96;89.73;101322.94;5069859;28;20221;-74
2022/02/01 05:06:56;;;;;;;19.50;3.77;;;;;;;2.95;89.36;101317.00;5069962;28;20196;-74
2022/02/01 05:09:23;;;;;;;16.03;2.70;;;;;;;2.94;88.82;101322.88;5069755;28;20208;-74
2022/02/01 05:11:50;;;;;;;16.23;2.87;;;;;;;2.93;88.76;101321.13;5071263;28;20197;-74
2022/02/01 05:14:27;;;;;;;15.03;2.70;;;;;;;2.94;89.34;101330.44;5069948;28;20267;-74
2022/02/01 05:22:02;;;;;;;14.13;2.83;;;;;;;3.02;89.50;101349.47;5069708;28;20173;-74
2022/02/01 05:24:28;;;;;;;14.93;2.67;;;;;;;3.06;88.49;101350.50;5069708;28;20267;-74
2022/02/01 05:26:54;;;;;;;19.03;3.20;;;;;;;3.09;88.48;101340.56;5070984;28;20181;-74
2022/02/01 05:29:20;;;;;;;18.37;3.13;;;;;;;3.07;89.72;101343.00;5069267;28;20193;-74
2022/02/01 05:31:51;;;;;;;18.43;3.17;;;;;;;3.08;89.79;101341.38;5069463;28;20681;-74
2022/02/01 05:34:20;;;;;;;15.63;2.87;;;;;;;3.07;89.40;101335.41;5070865;28;20665;-74
2022/02/01 05:36:45;;;;;;;22.83;3.20;;;;;;;3.07;89.91;101339.59;5052812;28;20200;-73
2022/02/01 05:39:23;;;;;;;19.10;3.33;;;;;;;3.04;89.89;101339.44;5070263;28;20208;-73
2022/02/01 05:41:54;;;;;;;12.13;2.60;;;;;;;3.03;89.84;101336.03;5069076;28;20188;-74
2022/02/01 05:44:19;;;;;;;15.10;3.00;;;;;;;3.03;89.79;101336.03;5070316;28;20675;-74
2022/02/01 05:46:45;;;;;;;12.63;2.60;;;;;;;3.04;90.37;101330.19;5052329;28;20189;-74
2022/02/01 05:49:10;;;;;;;17.40;2.80;;;;;;;3.05;90.54;101324.38;5070025;28;20239;-74
2022/02/01 05:51:37;;;;;;;15.60;2.83;;;;;;;3.09;90.70;101320.34;5068882;28;20224;-74
2022/02/01 05:54:03;;;;;;;16.13;2.93;;;;;;;3.07;90.55;101309.25;5068757;28;20280;-74
2022/02/01 05:56:28;;;;;;;11.30;2.43;;;;;;;3.26;91.33;101310.38;5070801;28;20537;-75
2022/02/01 05:58:54;;;;;;;16.33;3.00;;;;;;;3.33;90.90;101306.53;5070138;28;20196;-76
2022/02/01 06:01:20;;;;;;;17.93;2.93;;;;;;;3.27;90.23;101306.19;5069710;28;20197;-74
2022/02/01 06:03:46;;;;;;;22.40;3.07;;;;;;;3.20;90.06;101299.03;5069461;28;20750;-74
2022/02/01 06:06:13;;;;;;;18.27;3.40;;;;;;;3.16;90.39;101297.13;5069643;28;20177;-74
2022/02/01 06:08:38;;;;;;;17.33;2.80;;;;;;;3.15;90.04;101292.84;5069735;28;20189;-74
2022/02/01 06:11:04;;;;;;;16.27;3.00;;;;;;;3.12;89.64;101285.97;5069901;28;20205;-74
2022/02/01 06:13:29;;;;;;;17.13;3.17;;;;;;;3.10;90.50;101279.06;5068483;28;20606;-74
2022/02/01 06:15:54;;;;;;;18.60;3.07;;;;;;;3.10;90.52;101285.03;5069864;28;20193;-74
2022/02/01 06:18:20;;;;;;;16.57;2.73;;;;;;;3.11;90.80;101284.22;5069804;28;20193;-74
2022/02/01 06:20:45;;;;;;;14.23;3.33;;;;;;;3.10;90.08;101271.50;5069857;28;20208;-74
2022/02/01 06:23:15;;;;;;;18.10;2.67;;;;;;;3.11;90.48;101264.00;5069921;28;20568;-74
2022/02/01 06:25:48;;;;;;;13.20;3.00;;;;;;;3.12;90.77;101258.13;5068514;28;20205;-73
2022/02/01 06:28:19;;;;;;;12.63;2.67;;;;;;;3.12;89.95;101262.34;5069542;28;20178;-73
2022/02/01 06:30:45;;;;;;;11.13;2.37;;;;;;;3.12;90.82;101268.25;5069632;28;20236;-74
2022/02/01 06:33:11;;;;;;;17.60;2.53;;;;;;;3.15;90.53;101278.56;5069815;28;20603;-73
2022/02/01 06:35:37;;;;;;;13.70;2.70;;;;;;;3.16;90.16;101264.22;5069702;28;20181;-74
2022/02/01 06:38:03;;;;;;;17.47;2.97;;;;;;;3.17;90.14;101269.38;5069445;28;20690;-74
2022/02/01 06:40:28;;;;;;;12.90;2.27;;;;;;;3.18;90.73;101275.31;5069551;28;20280;-74
2022/02/01 06:42:54;;;;;;;14.33;3.00;;;;;;;3.19;90.37;101272.00;5069499;28;20183;-73
2022/02/01 06:45:19;;;;;;;12.57;2.30;;;;;;;3.19;90.57;101283.00;5069586;28;20645;-73
2022/02/01 06:47:44;;;;;;;15.80;2.40;;;;;;;3.22;90.08;101275.56;5069480;28;20258;-73
2022/02/01 06:50:12;;;;;;;17.33;3.03;;;;;;;3.22;90.21;101282.28;5069568;28;20215;-74
2022/02/01 06:52:37;;;;;;;16.97;2.93;;;;;;;3.22;90.18;101270.50;5069263;28;20189;-74
2022/02/01 06:55:03;;;;;;;15.97;2.20;;;;;;;3.24;89.03;101266.41;5067995;28;20543;-74
2022/02/01 06:57:36;;;;;;;17.00;2.87;;;;;;;3.26;89.04;101261.44;5069415;28;20220;-74
2022/02/01 07:00:04;;;;;;;13.53;3.83;;;;;;;3.24;90.25;101261.34;5069014;28;20303;-74
2022/02/01 07:02:29;;;;;;;9.77;2.70;;;;;;;3.27;89.22;101264.03;5068012;28;20276;-74
2022/02/01 07:04:54;;;;;;;17.30;2.70;;;;;;;3.27;89.49;101256.44;5069292;28;20312;-74
2022/02/01 07:07:19;;;;;;;12.17;2.13;;;;;;;3.29;89.62;101249.81;5069388;28;20189;-74
2022/02/01 07:09:45;;;;;;;13.07;2.67;;;;;;;3.27;89.46;101242.94;5067735;28;20270;-74
2022/02/01 07:12:11;;;;;;;16.20;3.10;;;;;;;3.27;89.46;101242.94;5069273;28;20192;-74
2022/02/01 07:14:36;;;;;;;13.20;2.27;;;;;;;3.27;89.27;101220.16;5069158;28;20189;-74
2022/02/01 07:17:01;;;;;;;10.37;2.73;;;;;;;3.25;89.89;101216.66;5072185;28;20193;-74
2022/02/01 07:19:27;;;;;;;14.83;2.57;;;;;;;3.24;90.03;101207.34;5072767;28;20228;-74
2022/02/01 07:21:52;;;;;;;18.83;2.80;;;;;;;3.25;89.72;101204.00;5073145;28;20185;-74
2022/02/01 07:24:26;;;;;;;15.23;3.20;;;;;;;3.25;90.05;101196.44;5073086;28;20220;-73
2022/02/01 07:26:57;;;;;;;10.03;2.20;;;;;;;3.28;90.61;101202.56;5073706;28;20649;-74
2022/02/01 07:29:22;;;;;;;19.33;3.00;;;;;;;3.29;89.91;101209.34;5073746;28;20288;-74
2022/02/01 07:31:48;;;;;;;11.47;3.47;;;;;;;3.31;89.97;101220.41;5073957;28;20315;-73
2022/02/01 07:34:14;;;;;;;19.43;2.87;;;;;;;3.32;89.91;101221.28;5071859;28;20181;-73
2022/02/01 07:36:41;;;;;;;12.80;2.90;;;;;;;3.35;90.22;101224.84;5073062;28;20193;-73
2022/02/01 07:39:06;;;;;;;14.27;2.90;;;;;;;3.38;90.61;101230.09;5072890;28;20201;-73
2022/02/01 07:41:32;;;;;;;12.73;2.53;;;;;;;3.43;90.24;101205.00;5073153;28;20194;-73
2022/02/01 07:43:57;;;;;;;18.23;3.43;;;;;;;3.48;90.35;101190.94;5072550;28;20228;-73
2022/02/01 07:46:23;;;;;;;11.27;2.67;;;;;;;3.50;90.52;101180.09;5072584;28;20272;-73
2022/02/01 07:48:49;;;;;;;13.40;2.50;;;;;;;3.53;90.05;101169.25;5070907;28;20283;-73
2022/02/01 07:51:14;;;;;;;13.00;2.73;;;;;;;3.55;90.46;101171.06;5072544;28;20193;-73
2022/02/01 07:53:39;;;;;;;10.07;2.30;;;;;;;3.62;90.10;101157.97;5072365;28;20192;-74
2022/02/01 07:56:05;;;;;;;10.97;2.97;;;;;;;3.72;89.57;101167.75;5072385;28;20185;-74
2022/02/01 07:58:30;;;;;;;11.20;2.87;;;;;;;3.73;89.53;101146.72;5072105;28;20224;-74
2022/02/01 08:00:56;;;;;;;11.37;3.13;;;;;;;3.77;89.58;101150.28;5071019;28;20722;-74
2022/02/01 08:03:21;;;;;;;13.47;3.70;;;;;;;3.76;89.95;101154.47;5072218;28;20200;-74
2022/02/01 08:05:46;;;;;;;15.80;3.23;;;;;;;3.75;90.11;101155.28;5072325;28;20626;-74
2022/02/01 08:08:12;;;;;;;15.47;3.50;;;;;;;3.76;90.21;101149.41;5070737;28;20243;-74
2022/02/01 08:10:44;;;;;;;15.33;3.47;;;;;;;3.76;90.28;101151.06;5070864;28;20224;-74
2022/02/01 08:19:07;;;;;;;13.07;2.83;;;;;;;3.78;89.94;101119.13;5048933;28;20224;-74
2022/02/01 08:21:42;;;;;;;10.03;3.17;;;;;;;3.77;90.00;101097.97;5069472;28;20550;-74
2022/02/01 08:24:07;;;;;;;15.17;3.30;;;;;;;3.80;89.74;101095.59;5071511;28;20259;-73
2022/02/01 08:26:33;;;;;;;11.37;2.87;;;;;;;3.81;90.50;101092.28;5070307;28;20212;-74
2022/02/01 08:28:59;;;;;;;10.63;3.10;;;;;;;3.83;90.13;101084.75;5070610;28;20207;-74
2022/02/01 08:31:24;;;;;;;11.53;3.07;;;;;;;3.85;90.01;101080.63;5070577;28;20181;-74
2022/02/01 08:33:49;;;;;;;9.17;3.73;;;;;;;3.87;90.13;101071.47;5071709;28;20177;-74
2022/02/01 08:36:15;;;;;;;11.03;3.03;;;;;;;3.90;90.44;101074.13;5070361;28;20189;-73
2022/02/01 08:38:40;;;;;;;14.87;3.57;;;;;;;3.92;90.02;101085.22;5071382;28;20232;-74
2022/02/01 08:41:05;;;;;;;12.17;3.23;;;;;;;3.92;89.36;101062.41;5053622;28;20201;-74
2022/02/01 08:43:31;;;;;;;14.13;3.27;;;;;;;3.89;89.89;101060.59;5071688;28;20216;-74
2022/02/01 08:45:56;;;;;;;12.97;3.57;;;;;;;3.89;89.66;101055.53;5071580;28;20185;-74
2022/02/01 08:48:22;;;;;;;11.50;3.70;;;;;;;3.89;89.82;101050.47;5070164;28;20189;-74
2022/02/01 08:50:47;;;;;;;14.03;3.90;;;;;;;3.92;90.05;101053.13;5071662;28;20205;-74
2022/02/01 08:53:22;;;;;;;12.73;4.30;;;;;;;3.95;89.32;101045.69;5071173;28;20644;-74
2022/02/01 08:56:02;;;;;;;15.60;4.37;;;;;;;3.94;89.64;101033.84;5071453;28;20424;-74
2022/02/01 08:58:29;;;;;;;13.20;4.93;;;;;;;3.97;89.76;101023.88;5071129;28;20279;-73
2022/02/01 09:00:54;;;;;;;15.17;5.57;;;;;;;4.01;89.78;101030.78;5069871;28;20213;-74
2022/02/01 09:03:20;;;;;;;14.83;6.73;;;;;;;4.01;89.86;101010.53;5071105;28;20221;-74
2022/02/01 09:05:51;;;;;;;14.83;5.70;;;;;;;4.02;89.40;101003.81;5071548;28;20178;-74
2022/02/01 09:08:17;;;;;;;15.97;6.43;;;;;;;4.04;89.56;100989.53;5070990;28;20185;-73
2022/02/01 09:10:43;;;;;;;17.20;7.00;;;;;;;4.11;89.56;100983.97;5069685;28;20679;-74
2022/02/01 09:13:09;;;;;;;18.07;6.60;;;;;;;4.14;89.36;100979.91;5070953;28;20177;-73
2022/02/01 09:15:35;;;;;;;14.40;6.20;;;;;;;4.19;89.09;100978.47;5069523;28;20225;-74
2022/02/01 09:18:00;;;;;;;17.13;6.63;;;;;;;4.21;88.89;100970.94;5070745;28;20189;-74
2022/02/01 09:20:27;;;;;;;14.53;6.23;;;;;;;4.22;88.85;100957.47;5070622;28;20244;-74
2022/02/01 09:22:52;;;;;;;16.17;5.60;;;;;;;4.25;88.99;100955.97;5069189;28;20323;-74
2022/02/01 09:25:19;;;;;;;15.90;5.83;;;;;;;4.31;88.51;100946.09;5070709;28;20189;-74
2022/02/01 09:27:46;;;;;;;13.20;5.87;;;;;;;4.28;88.60;100942.56;5069158;28;20297;-74
2022/02/01 09:30:14;;;;;;;11.63;4.63;;;;;;;4.29;88.38;100937.56;5070444;28;20193;-73
2022/02/01 09:32:39;;;;;;;16.20;5.50;;;;;;;4.31;88.43;100933.44;5070605;28;20236;-74
2022/02/01 09:35:05;;;;;;;12.43;5.60;;;;;;;4.33;88.74;100920.84;5070646;28;20220;-74
2022/02/01 09:37:30;;;;;;;14.57;5.50;;;;;;;4.39;88.38;100910.97;5070606;28;20189;-74
2022/02/01 09:39:55;;;;;;;12.63;4.33;;;;;;;4.36;87.45;100914.22;5070084;28;20205;-74
2022/02/01 09:42:24;;;;;;;14.13;4.67;;;;;;;4.45;87.96;100904.50;5070524;28;20177;-74
2022/02/01 09:44:52;;;;;;;11.10;4.00;;;;;;;4.52;86.92;100888.75;5070225;28;20212;-73
2022/02/01 09:47:17;;;;;;;14.37;3.70;;;;;;;4.55;86.39;100888.88;5070603;28;20219;-74
2022/02/01 09:49:45;;;;;;;10.50;3.70;;;;;;;4.61;87.31;100873.94;5070043;28;20539;-74
2022/02/01 09:52:10;;;;;;;8.73;3.67;;;;;;;4.63;87.08;100874.88;5070155;28;20196;-74
2022/02/01 09:54:36;;;;;;;9.03;3.40;;;;;;;4.57;86.76;100864.47;5070179;28;20647;-74
2022/02/01 09:57:06;;;;;;;11.63;3.30;;;;;;;4.61;87.14;100853.66;5070151;28;20667;-74
2022/02/01 09:59:33;;;;;;;9.00;2.97;;;;;;;4.55;87.28;100852.53;5069889;28;20205;-74
2022/02/01 10:02:12;;;;;;;14.00;3.37;;;;;;;4.58;88.06;100839.97;5070056;28;20220;-74
2022/02/01 10:04:37;;;;;;;11.60;2.90;;;;;;;4.52;88.91;100830.44;5068806;28;20254;-74
2022/02/01 10:07:08;;;;;;;7.20;2.90;;;;;;;4.39;89.75;100819.72;5070277;28;20197;-74
2022/02/01 10:09:34;;;;;;;8.40;3.10;;;;;;;4.37;91.23;100812.03;5069904;28;20201;-74
2022/02/01 10:11:59;;;;;;;11.57;3.30;;;;;;;4.32;90.96;100800.84;5069956;28;20181;-73
2022/02/01 10:14:36;;;;;;;11.73;3.00;;;;;;;4.30;91.14;100793.97;5069952;28;20182;-74
2022/02/01 10:17:07;;;;;;;9.70;3.10;;;;;;;4.37;91.07;100790.91;5069801;28;20173;-74
2022/02/01 10:19:33;;;;;;;8.07;2.87;;;;;;;4.31;91.17;100791.50;5069489;28;20687;-73
2022/02/01 10:22:04;;;;;;;10.10;3.10;;;;;;;4.40;91.60;100769.09;5068525;28;20188;-74
2022/02/01 10:24:31;;;;;;;9.50;3.13;;;;;;;4.26;91.75;100759.16;5067951;28;20266;-73
2022/02/01 10:27:18;;;;;;;10.23;3.13;;;;;;;4.24;92.35;100758.25;5069656;28;20533;-74
2022/02/01 10:30:17;;;;;;;8.07;3.07;;;;;;;4.21;92.20;100745.44;5068281;28;20208;-74
2022/02/01 10:33:11;;;;;;;11.47;3.40;;;;;;;4.14;92.62;100741.78;5069714;28;20592;-74
2022/02/01 10:35:55;;;;;;;12.73;4.00;;;;;;;4.16;93.60;100726.66;5069600;28;20576;-74
2022/02/01 10:38:22;;;;;;;10.27;3.80;;;;;;;4.13;93.43;100708.78;5069540;28;20234;-74
2022/02/01 10:40:52;;;;;;;6.60;3.20;;;;;;;4.12;93.63;100701.97;5069591;28;20792;-74
2022/02/01 10:43:20;;;;;;;12.27;4.00;;;;;;;4.06;94.10;100682.34;5068088;28;20205;-74
2022/02/01 10:45:47;;;;;;;10.70;4.20;;;;;;;4.00;94.08;100664.34;5069437;28;20177;-74
2022/02/01 10:48:18;;;;;;;8.93;3.70;;;;;;;4.09;94.77;100648.69;5067889;28;20177;-74
2022/02/01 10:50:45;;;;;;;7.30;3.00;;;;;;;3.99;94.78;100639.81;5071931;28;20209;-74
2022/02/01 10:53:18;;;;;;;8.37;4.17;;;;;;;4.01;94.71;100637.34;5075744;28;20183;-73
2022/02/01 10:55:45;;;;;;;8.00;3.67;;;;;;;4.13;94.66;100631.13;5076082;28;20185;-74
2022/02/01 10:58:11;;;;;;;10.00;3.47;;;;;;;4.01;94.75;100627.22;5075826;28;20279;-74
2022/02/01 11:00:37;;;;;;;11.00;3.50;;;;;;;4.03;94.73;100596.09;5075991;28;20300;-74
2022/02/01 11:03:03;;;;;;;8.13;3.23;;;;;;;4.01;94.99;100597.69;5075971;28;20189;-73
2022/02/01 11:05:30;;;;;;;7.67;3.40;;;;;;;4.04;95.56;100575.03;5076010;28;20188;-73
2022/02/01 11:07:55;;;;;;;6.43;3.43;;;;;;;4.02;95.15;100574.09;5076022;28;20212;-73
2022/02/01 11:10:21;;;;;;;5.63;3.00;;;;;;;4.05;96.01;100556.47;5076415;28;20620;-73
2022/02/01 11:12:47;;;;;;;7.80;3.37;;;;;;;4.09;95.99;100545.66;5076128;28;20185;-74
2022/02/01 11:15:20;;;;;;;7.67;3.93;;;;;;;4.07;95.77;100528.69;5074820;28;20592;-74
2022/02/01 11:17:47;;;;;;;8.03;3.37;;;;;;;4.20;95.88;100508.97;5074816;28;20181;-74
2022/02/01 11:20:13;;;;;;;5.77;2.87;;;;;;;4.21;95.85;100505.63;5074660;28;20209;-73
2022/02/01 11:22:42;;;;;;;5.27;2.67;;;;;;;4.24;96.26;100489.69;5075838;28;20188;-74
2022/02/01 11:25:20;;;;;;;5.53;2.97;;;;;;;4.24;96.10;100482.09;5075647;28;20209;-74
2022/02/01 11:27:58;;;;;;;5.33;2.50;;;;;;;4.16;96.21;100465.72;5074738;28;20172;-74
2022/02/01 11:30:32;;;;;;;7.23;2.87;;;;;;;4.21;96.20;100462.56;5074525;28;20886;-74
2022/02/01 11:33:00;;;;;;;5.40;3.10;;;;;;;4.25;96.24;100464.41;5074720;28;20169;-74
2022/02/01 11:35:26;;;;;;;4.20;2.17;;;;;;;4.27;96.45;100436.56;5057780;28;20577;-73
2022/02/01 11:37:54;;;;;;;4.13;3.07;;;;;;;4.41;96.56;100410.06;5075954;28;20180;-74
2022/02/01 11:40:25;;;;;;;4.27;2.73;;;;;;;4.44;96.08;100412.72;5074463;28;20296;-74
2022/02/01 11:43:00;;;;;;;6.23;2.93;;;;;;;4.49;95.98;100394.34;5075815;28;20197;-74
2022/02/01 11:45:32;;;;;;;4.27;2.60;;;;;;;4.45;95.93;100404.31;5074390;28;20185;-74
2022/02/01 11:47:59;;;;;;;3.30;2.63;;;;;;;4.56;95.81;100395.44;5075567;28;20437;-74
2022/02/01 11:50:27;;;;;;;6.80;2.80;;;;;;;4.68;95.83;100404.34;5074651;28;20219;-74
2022/02/01 11:52:55;;;;;;;6.90;3.10;;;;;;;4.66;96.26;100369.59;5075447;28;20186;-74
2022/02/01 11:55:28;;;;;;;5.03;3.10;;;;;;;4.73;95.81;100359.72;5075780;28;20237;-74
2022/02/01 11:57:59;;;;;;;4.13;2.87;;;;;;;4.80;95.47;100348.13;5075909;28;20172;-74
2022/02/01 12:00:26;;;;;;;4.97;2.87;;;;;;;4.87;95.18;100338.22;5075913;28;20693;-74
2022/02/01 12:02:59;;;;;;;3.23;2.77;;;;;;;4.87;95.83;100333.16;5072200;28;20600;-74
2022/02/01 12:05:30;;;;;;;3.20;2.90;;;;;;;4.93;95.80;100332.50;5071326;28;20264;-74
2022/02/01 12:08:09;;;;;;;4.93;3.60;;;;;;;5.01;95.41;100298.94;5070875;28;20279;-74
2022/02/01 12:10:38;;;;;;;5.70;2.87;;;;;;;5.03;94.82;100310.03;5072257;28;20417;-73
2022/02/01 12:13:03;;;;;;;3.57;2.90;;;;;;;4.98;95.16;100328.44;5072346;28;20670;-74
2022/02/01 12:15:35;;;;;;;4.33;3.33;;;;;;;4.93;95.53;100304.59;5072157;28;20181;-74
2022/02/01 12:18:08;;;;;;;5.43;3.80;;;;;;;4.91;95.66;100285.91;5072009;28;20181;-74
2022/02/01 12:20:38;;;;;;;4.10;3.70;;;;;;;4.97;96.45;100289.50;5071935;28;20257;-74
2022/02/01 12:23:06;;;;;;;5.10;3.90;;;;;;;5.04;96.29;100263.53;5071452;28;20181;-74
2022/02/01 12:25:32;;;;;;;4.73;3.60;;;;;;;5.06;96.42;100266.97;5071940;28;20276;-74
2022/02/01 12:27:57;;;;;;;3.90;3.37;;;;;;;5.07;96.09;100256.00;5071837;28;20644;-74
2022/02/01 12:30:22;;;;;;;4.27;3.87;;;;;;;5.10;96.72;100266.25;5070662;28;20231;-74
2022/02/01 12:32:49;;;;;;;5.27;4.10;;;;;;;5.17;97.03;100247.03;5070690;28;20287;-74
2022/02/01 12:35:14;;;;;;;5.60;4.23;;;;;;;5.29;97.00;100229.66;5072060;28;20195;-74
2022/02/01 12:37:39;;;;;;;4.37;3.60;;;;;;;5.42;96.87;100229.16;5071805;28;20181;-74
2022/02/01 12:40:11;;;;;;;4.40;3.50;;;;;;;5.49;96.30;100229.44;5071487;28;20209;-74
2022/02/01 12:42:49;;;;;;;4.53;3.20;;;;;;;5.55;96.47;100218.56;5071687;28;20181;-74
2022/02/01 12:48:01;;;;;;;3.33;3.03;;;;;;;5.57;96.68;100211.88;5071447;28;20494;-74
2022/02/01 12:50:27;;;;;;;3.37;3.07;;;;;;;5.59;96.23;100187.38;5071419;28;20197;-74
2022/02/01 12:53:04;;;;;;;3.20;2.90;;;;;;;5.65;96.73;100185.00;5071136;28;20181;-74
2022/02/01 12:55:29;;;;;;;3.60;3.10;;;;;;;5.68;96.49;100191.03;5071896;28;20172;-74
2022/02/01 12:57:55;;;;;;;3.60;3.30;;;;;;;5.68;96.62;100195.25;5071141;28;20650;-74